sensor_id;sensor_type;location;lat;lon;timestamp;P1;durP1;ratioP1;P2;durP2;ratioP2
25349;SDS011;13302;48.796;11.978;2022-12-10T00:01:50;13.30;;;11.77;;
25349;SDS011;13302;48.796;11.978;2022-12-10T00:04:38;12.80;;;11.50;;
25349;SDS011;13302;48.796;11.978;2022-12-10T00:07:27;12.30;;;11.00;;
25349;SDS011;13302;48.796;11.978;2022-12-10T00:10:14;12.77;;;11.43;;
25349;SDS011;13302;48.796;11.978;2022-12-10T00:13:02;13.73;;;12.43;;
25349;SDS011;13302;48.796;11.978;2022-12-10T00:15:49;16.03;;;14.43;;
25349;SDS011;13302;48.796;11.978;2022-12-10T00:18:36;13.53;;;12.20;;
25349;SDS011;13302;48.796;11.978;2022-12-10T00:21:24;12.80;;;11.17;;
25349;SDS011;13302;48.796;11.978;2022-12-10T00:24:15;11.50;;;10.30;;
25349;SDS011;13302;48.796;11.978;2022-12-10T00:27:02;12.67;;;10.97;;
25349;SDS011;13302;48.796;11.978;2022-12-10T00:29:48;11.73;;;10.63;;
25349;SDS011;13302;48.796;11.978;2022-12-10T00:32:35;12.00;;;10.83;;
25349;SDS011;13302;48.796;11.978;2022-12-10T00:35:22;12.07;;;10.77;;
25349;SDS011;13302;48.796;11.978;2022-12-10T00:38:11;11.93;;;10.83;;
25349;SDS011;13302;48.796;11.978;2022-12-10T00:40:58;12.57;;;11.37;;
25349;SDS011;13302;48.796;11.978;2022-12-10T00:43:45;11.87;;;10.67;;
25349;SDS011;13302;48.796;11.978;2022-12-10T00:46:33;11.80;;;10.60;;
25349;SDS011;13302;48.796;11.978;2022-12-10T00:49:20;11.43;;;10.33;;
25349;SDS011;13302;48.796;11.978;2022-12-10T00:52:09;11.87;;;10.67;;
25349;SDS011;13302;48.796;11.978;2022-12-10T00:54:56;13.17;;;11.83;;
25349;SDS011;13302;48.796;11.978;2022-12-10T00:57:43;12.43;;;11.23;;
25349;SDS011;13302;48.796;11.978;2022-12-10T01:00:30;12.60;;;11.50;;
25349;SDS011;13302;48.796;11.978;2022-12-10T01:03:17;12.10;;;10.90;;
25349;SDS011;13302;48.796;11.978;2022-12-10T01:06:11;11.77;;;10.57;;
25349;SDS011;13302;48.796;11.978;2022-12-10T01:09:06;12.30;;;11.10;;
25349;SDS011;13302;48.796;11.978;2022-12-10T01:11:56;12.43;;;11.13;;
25349;SDS011;13302;48.796;11.978;2022-12-10T01:14:46;12.60;;;11.37;;
25349;SDS011;13302;48.796;11.978;2022-12-10T01:17:35;12.63;;;11.37;;
25349;SDS011;13302;48.796;11.978;2022-12-10T01:20:22;13.40;;;12.00;;
25349;SDS011;13302;48.796;11.978;2022-12-10T01:23:09;13.37;;;11.97;;
25349;SDS011;13302;48.796;11.978;2022-12-10T01:25:58;12.33;;;11.03;;
25349;SDS011;13302;48.796;11.978;2022-12-10T01:28:47;12.80;;;11.47;;
25349;SDS011;13302;48.796;11.978;2022-12-10T01:31:35;14.83;;;12.40;;
25349;SDS011;13302;48.796;11.978;2022-12-10T01:34:25;11.47;;;10.33;;
25349;SDS011;13302;48.796;11.978;2022-12-10T01:37:15;11.30;;;10.20;;
25349;SDS011;13302;48.796;11.978;2022-12-10T01:40:02;13.10;;;11.73;;
25349;SDS011;13302;48.796;11.978;2022-12-10T01:42:49;11.63;;;10.53;;
25349;SDS011;13302;48.796;11.978;2022-12-10T01:45:36;12.53;;;11.20;;
25349;SDS011;13302;48.796;11.978;2022-12-10T01:48:25;12.10;;;10.90;;
25349;SDS011;13302;48.796;11.978;2022-12-10T01:51:13;11.43;;;10.30;;
25349;SDS011;13302;48.796;11.978;2022-12-10T01:54:01;13.37;;;11.97;;
25349;SDS011;13302;48.796;11.978;2022-12-10T01:56:54;12.10;;;10.90;;
25349;SDS011;13302;48.796;11.978;2022-12-10T01:59:46;11.10;;;10.07;;
25349;SDS011;13302;48.796;11.978;2022-12-10T02:02:43;11.73;;;10.53;;
25349;SDS011;13302;48.796;11.978;2022-12-10T02:05:42;11.40;;;10.30;;
25349;SDS011;13302;48.796;11.978;2022-12-10T02:08:44;12.77;;;10.80;;
25349;SDS011;13302;48.796;11.978;2022-12-10T02:11:44;12.53;;;11.23;;
25349;SDS011;13302;48.796;11.978;2022-12-10T02:17:29;11.73;;;10.50;;
25349;SDS011;13302;48.796;11.978;2022-12-10T02:20:40;11.77;;;10.57;;
25349;SDS011;13302;48.796;11.978;2022-12-10T02:23:32;12.10;;;10.80;;
25349;SDS011;13302;48.796;11.978;2022-12-10T02:29:35;12.03;;;10.80;;
25349;SDS011;13302;48.796;11.978;2022-12-10T02:32:25;12.53;;;11.27;;
25349;SDS011;13302;48.796;11.978;2022-12-10T02:35:22;12.70;;;11.50;;
25349;SDS011;13302;48.796;11.978;2022-12-10T02:38:23;13.10;;;11.73;;
25349;SDS011;13302;48.796;11.978;2022-12-10T02:41:16;12.53;;;11.23;;
25349;SDS011;13302;48.796;11.978;2022-12-10T02:44:10;13.47;;;12.07;;
25349;SDS011;13302;48.796;11.978;2022-12-10T02:46:59;12.17;;;11.07;;
25349;SDS011;13302;48.796;11.978;2022-12-10T02:49:54;15.07;;;12.30;;
25349;SDS011;13302;48.796;11.978;2022-12-10T02:52:46;13.63;;;12.17;;
25349;SDS011;13302;48.796;11.978;2022-12-10T02:56:20;12.43;;;11.10;;
25349;SDS011;13302;48.796;11.978;2022-12-10T02:59:12;14.37;;;12.47;;
25349;SDS011;13302;48.796;11.978;2022-12-10T03:05:20;13.57;;;11.70;;
25349;SDS011;13302;48.796;11.978;2022-12-10T03:14:15;12.47;;;11.20;;
25349;SDS011;13302;48.796;11.978;2022-12-10T03:17:09;14.10;;;12.63;;
25349;SDS011;13302;48.796;11.978;2022-12-10T03:19:56;13.93;;;12.53;;
25349;SDS011;13302;48.796;11.978;2022-12-10T03:22:46;13.13;;;11.73;;
25349;SDS011;13302;48.796;11.978;2022-12-10T03:25:35;14.83;;;12.33;;
25349;SDS011;13302;48.796;11.978;2022-12-10T03:28:24;13.57;;;12.13;;
25349;SDS011;13302;48.796;11.978;2022-12-10T03:31:12;14.77;;;13.23;;
25349;SDS011;13302;48.796;11.978;2022-12-10T03:34:01;13.40;;;12.10;;
25349;SDS011;13302;48.796;11.978;2022-12-10T03:36:49;13.87;;;12.03;;
25349;SDS011;13302;48.796;11.978;2022-12-10T03:39:38;15.70;;;12.43;;
25349;SDS011;13302;48.796;11.978;2022-12-10T03:42:26;16.63;;;13.47;;
25349;SDS011;13302;48.796;11.978;2022-12-10T03:45:13;13.60;;;11.77;;
25349;SDS011;13302;48.796;11.978;2022-12-10T03:48:00;16.57;;;13.37;;
25349;SDS011;13302;48.796;11.978;2022-12-10T03:50:47;14.77;;;13.23;;
25349;SDS011;13302;48.796;11.978;2022-12-10T03:53:34;13.90;;;12.53;;
25349;SDS011;13302;48.796;11.978;2022-12-10T03:56:21;14.30;;;12.90;;
25349;SDS011;13302;48.796;11.978;2022-12-10T03:59:08;13.70;;;12.23;;
25349;SDS011;13302;48.796;11.978;2022-12-10T04:01:55;14.17;;;12.77;;
25349;SDS011;13302;48.796;11.978;2022-12-10T04:04:42;13.87;;;12.47;;
25349;SDS011;13302;48.796;11.978;2022-12-10T04:07:29;15.10;;;13.57;;
25349;SDS011;13302;48.796;11.978;2022-12-10T04:10:17;14.50;;;13.07;;
25349;SDS011;13302;48.796;11.978;2022-12-10T04:13:04;13.83;;;12.43;;
25349;SDS011;13302;48.796;11.978;2022-12-10T04:16:09;15.83;;;12.97;;
25349;SDS011;13302;48.796;11.978;2022-12-10T04:19:16;15.03;;;13.53;;
25349;SDS011;13302;48.796;11.978;2022-12-10T04:22:04;14.30;;;12.80;;
25349;SDS011;13302;48.796;11.978;2022-12-10T04:25:10;15.70;;;13.93;;
25349;SDS011;13302;48.796;11.978;2022-12-10T04:28:17;14.27;;;12.87;;
25349;SDS011;13302;48.796;11.978;2022-12-10T04:31:04;14.57;;;12.90;;
25349;SDS011;13302;48.796;11.978;2022-12-10T04:33:51;15.53;;;13.83;;
25349;SDS011;13302;48.796;11.978;2022-12-10T04:36:38;14.77;;;13.20;;
25349;SDS011;13302;48.796;11.978;2022-12-10T04:39:25;15.33;;;13.73;;
25349;SDS011;13302;48.796;11.978;2022-12-10T04:42:12;15.70;;;14.10;;
25349;SDS011;13302;48.796;11.978;2022-12-10T04:44:59;15.13;;;13.53;;
25349;SDS011;13302;48.796;11.978;2022-12-10T04:47:46;13.97;;;12.57;;
25349;SDS011;13302;48.796;11.978;2022-12-10T04:50:33;15.13;;;13.47;;
25349;SDS011;13302;48.796;11.978;2022-12-10T04:53:21;14.93;;;13.43;;
25349;SDS011;13302;48.796;11.978;2022-12-10T04:56:09;14.70;;;13.03;;
25349;SDS011;13302;48.796;11.978;2022-12-10T04:58:56;15.93;;;13.80;;
25349;SDS011;13302;48.796;11.978;2022-12-10T05:01:44;16.83;;;14.80;;
25349;SDS011;13302;48.796;11.978;2022-12-10T05:04:31;15.00;;;13.50;;
25349;SDS011;13302;48.796;11.978;2022-12-10T05:07:18;15.17;;;13.47;;
25349;SDS011;13302;48.796;11.978;2022-12-10T05:10:05;15.97;;;14.27;;
25349;SDS011;13302;48.796;11.978;2022-12-10T05:12:53;15.33;;;13.60;;
25349;SDS011;13302;48.796;11.978;2022-12-10T05:15:40;15.60;;;13.97;;
25349;SDS011;13302;48.796;11.978;2022-12-10T05:18:27;16.67;;;13.50;;
25349;SDS011;13302;48.796;11.978;2022-12-10T05:21:14;15.40;;;13.80;;
25349;SDS011;13302;48.796;11.978;2022-12-10T05:24:03;15.57;;;13.73;;
25349;SDS011;13302;48.796;11.978;2022-12-10T05:26:50;16.87;;;14.20;;
25349;SDS011;13302;48.796;11.978;2022-12-10T05:29:38;16.17;;;14.47;;
25349;SDS011;13302;48.796;11.978;2022-12-10T05:32:25;15.70;;;13.90;;
25349;SDS011;13302;48.796;11.978;2022-12-10T05:35:12;16.53;;;14.83;;
25349;SDS011;13302;48.796;11.978;2022-12-10T05:37:59;15.67;;;14.07;;
25349;SDS011;13302;48.796;11.978;2022-12-10T05:40:46;16.97;;;14.40;;
25349;SDS011;13302;48.796;11.978;2022-12-10T05:43:33;16.93;;;14.97;;
25349;SDS011;13302;48.796;11.978;2022-12-10T05:46:21;18.47;;;15.07;;
25349;SDS011;13302;48.796;11.978;2022-12-10T05:49:09;16.67;;;14.87;;
25349;SDS011;13302;48.796;11.978;2022-12-10T05:51:56;17.40;;;15.50;;
25349;SDS011;13302;48.796;11.978;2022-12-10T05:54:43;17.73;;;15.83;;
25349;SDS011;13302;48.796;11.978;2022-12-10T05:57:30;17.93;;;16.20;;
25349;SDS011;13302;48.796;11.978;2022-12-10T06:00:17;17.10;;;15.27;;
25349;SDS011;13302;48.796;11.978;2022-12-10T06:03:04;16.77;;;15.07;;
25349;SDS011;13302;48.796;11.978;2022-12-10T06:05:52;22.03;;;18.00;;
25349;SDS011;13302;48.796;11.978;2022-12-10T06:08:39;22.67;;;19.17;;
25349;SDS011;13302;48.796;11.978;2022-12-10T06:11:26;21.30;;;17.93;;
25349;SDS011;13302;48.796;11.978;2022-12-10T06:14:14;20.33;;;16.93;;
25349;SDS011;13302;48.796;11.978;2022-12-10T06:17:01;17.83;;;15.93;;
25349;SDS011;13302;48.796;11.978;2022-12-10T06:19:48;16.97;;;15.17;;
25349;SDS011;13302;48.796;11.978;2022-12-10T06:22:34;16.60;;;14.90;;
25349;SDS011;13302;48.796;11.978;2022-12-10T06:25:21;16.20;;;14.60;;
25349;SDS011;13302;48.796;11.978;2022-12-10T06:28:08;18.50;;;15.50;;
25349;SDS011;13302;48.796;11.978;2022-12-10T06:30:57;17.10;;;15.30;;
25349;SDS011;13302;48.796;11.978;2022-12-10T06:33:45;17.83;;;15.53;;
25349;SDS011;13302;48.796;11.978;2022-12-10T06:36:32;16.57;;;14.83;;
25349;SDS011;13302;48.796;11.978;2022-12-10T06:39:19;19.00;;;16.17;;
25349;SDS011;13302;48.796;11.978;2022-12-10T06:42:06;18.47;;;16.27;;
25349;SDS011;13302;48.796;11.978;2022-12-10T06:44:53;18.30;;;16.17;;
25349;SDS011;13302;48.796;11.978;2022-12-10T06:47:40;18.93;;;16.20;;
25349;SDS011;13302;48.796;11.978;2022-12-10T06:50:29;17.43;;;15.60;;
25349;SDS011;13302;48.796;11.978;2022-12-10T06:53:15;17.77;;;15.47;;
25349;SDS011;13302;48.796;11.978;2022-12-10T06:56:03;17.47;;;15.40;;
25349;SDS011;13302;48.796;11.978;2022-12-10T06:58:51;18.03;;;15.47;;
25349;SDS011;13302;48.796;11.978;2022-12-10T07:01:38;19.37;;;16.23;;
25349;SDS011;13302;48.796;11.978;2022-12-10T07:04:26;17.00;;;15.20;;
25349;SDS011;13302;48.796;11.978;2022-12-10T07:07:13;19.80;;;17.10;;
25349;SDS011;13302;48.796;11.978;2022-12-10T07:10:00;18.03;;;16.13;;
25349;SDS011;13302;48.796;11.978;2022-12-10T07:12:47;19.13;;;16.67;;
25349;SDS011;13302;48.796;11.978;2022-12-10T07:15:34;17.87;;;15.97;;
25349;SDS011;13302;48.796;11.978;2022-12-10T07:18:21;19.40;;;16.50;;
25349;SDS011;13302;48.796;11.978;2022-12-10T07:21:15;17.37;;;15.50;;
25349;SDS011;13302;48.796;11.978;2022-12-10T07:24:10;17.20;;;15.33;;
25349;SDS011;13302;48.796;11.978;2022-12-10T07:27:00;17.77;;;15.53;;
25349;SDS011;13302;48.796;11.978;2022-12-10T07:29:47;18.53;;;16.47;;
25349;SDS011;13302;48.796;11.978;2022-12-10T07:32:34;19.60;;;16.90;;
25349;SDS011;13302;48.796;11.978;2022-12-10T07:35:22;17.87;;;15.97;;
25349;SDS011;13302;48.796;11.978;2022-12-10T07:38:09;18.83;;;16.67;;
25349;SDS011;13302;48.796;11.978;2022-12-10T07:40:56;20.10;;;16.83;;
25349;SDS011;13302;48.796;11.978;2022-12-10T07:43:43;20.90;;;16.50;;
25349;SDS011;13302;48.796;11.978;2022-12-10T07:46:31;20.30;;;16.73;;
25349;SDS011;13302;48.796;11.978;2022-12-10T07:49:18;19.27;;;16.63;;
25349;SDS011;13302;48.796;11.978;2022-12-10T07:52:07;19.47;;;16.93;;
25349;SDS011;13302;48.796;11.978;2022-12-10T07:54:55;19.00;;;17.00;;
25349;SDS011;13302;48.796;11.978;2022-12-10T07:57:42;23.63;;;17.43;;
25349;SDS011;13302;48.796;11.978;2022-12-10T08:00:29;23.70;;;18.73;;
25349;SDS011;13302;48.796;11.978;2022-12-10T08:03:16;19.97;;;17.80;;
25349;SDS011;13302;48.796;11.978;2022-12-10T08:06:04;21.47;;;18.10;;
25349;SDS011;13302;48.796;11.978;2022-12-10T08:08:57;23.60;;;17.83;;
25349;SDS011;13302;48.796;11.978;2022-12-10T08:11:45;19.43;;;17.33;;
25349;SDS011;13302;48.796;11.978;2022-12-10T08:14:32;21.17;;;18.10;;
25349;SDS011;13302;48.796;11.978;2022-12-10T08:17:19;20.77;;;18.17;;
25349;SDS011;13302;48.796;11.978;2022-12-10T08:20:06;21.23;;;18.47;;
25349;SDS011;13302;48.796;11.978;2022-12-10T08:22:54;22.40;;;18.70;;
25349;SDS011;13302;48.796;11.978;2022-12-10T08:25:41;20.83;;;17.90;;
25349;SDS011;13302;48.796;11.978;2022-12-10T08:28:28;23.60;;;19.67;;
25349;SDS011;13302;48.796;11.978;2022-12-10T08:31:15;21.40;;;17.60;;
25349;SDS011;13302;48.796;11.978;2022-12-10T08:34:04;21.63;;;18.90;;
25349;SDS011;13302;48.796;11.978;2022-12-10T08:36:57;20.70;;;17.80;;
25349;SDS011;13302;48.796;11.978;2022-12-10T08:39:44;22.80;;;18.10;;
25349;SDS011;13302;48.796;11.978;2022-12-10T08:42:31;22.63;;;18.33;;
25349;SDS011;13302;48.796;11.978;2022-12-10T08:45:18;24.37;;;19.07;;
25349;SDS011;13302;48.796;11.978;2022-12-10T08:48:05;21.80;;;18.73;;
25349;SDS011;13302;48.796;11.978;2022-12-10T08:50:52;23.03;;;19.00;;
25349;SDS011;13302;48.796;11.978;2022-12-10T08:53:39;25.10;;;19.97;;
25349;SDS011;13302;48.796;11.978;2022-12-10T08:56:26;23.93;;;19.10;;
25349;SDS011;13302;48.796;11.978;2022-12-10T08:59:13;25.07;;;20.67;;
25349;SDS011;13302;48.796;11.978;2022-12-10T09:02:00;23.50;;;19.63;;
25349;SDS011;13302;48.796;11.978;2022-12-10T09:04:47;23.87;;;19.67;;
25349;SDS011;13302;48.796;11.978;2022-12-10T09:07:36;24.93;;;20.53;;
25349;SDS011;13302;48.796;11.978;2022-12-10T09:10:23;23.40;;;19.63;;
25349;SDS011;13302;48.796;11.978;2022-12-10T09:13:10;24.27;;;19.70;;
25349;SDS011;13302;48.796;11.978;2022-12-10T09:15:57;23.07;;;19.57;;
25349;SDS011;13302;48.796;11.978;2022-12-10T09:18:44;25.07;;;20.07;;
25349;SDS011;13302;48.796;11.978;2022-12-10T09:21:33;26.27;;;19.30;;
25349;SDS011;13302;48.796;11.978;2022-12-10T09:24:20;25.77;;;20.20;;
25349;SDS011;13302;48.796;11.978;2022-12-10T09:27:07;23.63;;;19.43;;
25349;SDS011;13302;48.796;11.978;2022-12-10T09:29:54;23.93;;;19.70;;
25349;SDS011;13302;48.796;11.978;2022-12-10T09:32:41;27.70;;;22.83;;
25349;SDS011;13302;48.796;11.978;2022-12-10T09:35:28;36.50;;;28.30;;
25349;SDS011;13302;48.796;11.978;2022-12-10T09:38:15;32.43;;;24.63;;
25349;SDS011;13302;48.796;11.978;2022-12-10T09:47:17;25.07;;;20.17;;
25349;SDS011;13302;48.796;11.978;2022-12-10T09:50:12;25.80;;;20.30;;
25349;SDS011;13302;48.796;11.978;2022-12-10T09:53:06;24.30;;;20.57;;
25349;SDS011;13302;48.796;11.978;2022-12-10T09:56:00;23.90;;;20.40;;
25349;SDS011;13302;48.796;11.978;2022-12-10T09:58:47;25.47;;;20.20;;
25349;SDS011;13302;48.796;11.978;2022-12-10T10:01:34;23.67;;;19.37;;
25349;SDS011;13302;48.796;11.978;2022-12-10T10:04:21;28.33;;;21.23;;
25349;SDS011;13302;48.796;11.978;2022-12-10T10:07:11;25.07;;;20.17;;
25349;SDS011;13302;48.796;11.978;2022-12-10T10:10:06;26.27;;;21.60;;
25349;SDS011;13302;48.796;11.978;2022-12-10T10:16:34;23.70;;;20.40;;
25349;SDS011;13302;48.796;11.978;2022-12-10T10:19:28;24.30;;;21.13;;
25349;SDS011;13302;48.796;11.978;2022-12-10T10:22:19;24.97;;;21.23;;
25349;SDS011;13302;48.796;11.978;2022-12-10T10:25:12;27.07;;;20.70;;
25349;SDS011;13302;48.796;11.978;2022-12-10T10:28:02;23.03;;;19.47;;
25349;SDS011;13302;48.796;11.978;2022-12-10T10:30:50;25.33;;;20.50;;
25349;SDS011;13302;48.796;11.978;2022-12-10T10:33:47;23.80;;;20.87;;
25349;SDS011;13302;48.796;11.978;2022-12-10T10:36:37;25.03;;;20.57;;
25349;SDS011;13302;48.796;11.978;2022-12-10T10:39:29;23.37;;;20.03;;
25349;SDS011;13302;48.796;11.978;2022-12-10T10:45:40;26.70;;;20.77;;
25349;SDS011;13302;48.796;11.978;2022-12-10T10:48:29;25.47;;;20.43;;
25349;SDS011;13302;48.796;11.978;2022-12-10T10:51:20;24.47;;;21.10;;
25349;SDS011;13302;48.796;11.978;2022-12-10T10:54:10;26.17;;;21.50;;
25349;SDS011;13302;48.796;11.978;2022-12-10T10:56:57;24.73;;;20.30;;
25349;SDS011;13302;48.796;11.978;2022-12-10T10:59:45;26.60;;;22.53;;
25349;SDS011;13302;48.796;11.978;2022-12-10T11:02:33;24.07;;;19.97;;
25349;SDS011;13302;48.796;11.978;2022-12-10T11:08:20;23.30;;;20.17;;
25349;SDS011;13302;48.796;11.978;2022-12-10T11:11:12;24.17;;;20.40;;
25349;SDS011;13302;48.796;11.978;2022-12-10T11:20:14;23.90;;;19.23;;
25349;SDS011;13302;48.796;11.978;2022-12-10T11:23:10;22.23;;;18.80;;
25349;SDS011;13302;48.796;11.978;2022-12-10T11:26:05;21.60;;;18.67;;
25349;SDS011;13302;48.796;11.978;2022-12-10T11:39:25;25.30;;;20.10;;
25349;SDS011;13302;48.796;11.978;2022-12-10T11:48:49;24.03;;;19.73;;
25349;SDS011;13302;48.796;11.978;2022-12-10T11:51:51;25.37;;;19.70;;
25349;SDS011;13302;48.796;11.978;2022-12-10T11:58:36;24.47;;;19.67;;
25349;SDS011;13302;48.796;11.978;2022-12-10T12:01:52;25.63;;;21.10;;
25349;SDS011;13302;48.796;11.978;2022-12-10T12:08:03;24.17;;;19.90;;
25349;SDS011;13302;48.796;11.978;2022-12-10T12:14:48;21.87;;;19.07;;
25349;SDS011;13302;48.796;11.978;2022-12-10T12:17:41;21.13;;;18.83;;
25349;SDS011;13302;48.796;11.978;2022-12-10T12:20:34;21.87;;;18.13;;
25349;SDS011;13302;48.796;11.978;2022-12-10T12:23:30;23.00;;;18.63;;
25349;SDS011;13302;48.796;11.978;2022-12-10T12:26:21;20.90;;;18.10;;
25349;SDS011;13302;48.796;11.978;2022-12-10T12:38:11;21.37;;;17.97;;
25349;SDS011;13302;48.796;11.978;2022-12-10T12:44:14;21.30;;;18.57;;
25349;SDS011;13302;48.796;11.978;2022-12-10T12:47:19;20.23;;;16.43;;
25349;SDS011;13302;48.796;11.978;2022-12-10T12:50:45;21.10;;;17.83;;
25349;SDS011;13302;48.796;11.978;2022-12-10T12:53:39;19.57;;;17.37;;
25349;SDS011;13302;48.796;11.978;2022-12-10T13:02:26;19.27;;;17.10;;
25349;SDS011;13302;48.796;11.978;2022-12-10T13:05:39;19.60;;;17.03;;
25349;SDS011;13302;48.796;11.978;2022-12-10T13:08:29;20.07;;;17.07;;
25349;SDS011;13302;48.796;11.978;2022-12-10T13:11:17;21.57;;;17.80;;
25349;SDS011;13302;48.796;11.978;2022-12-10T13:26:22;25.97;;;21.43;;
25349;SDS011;13302;48.796;11.978;2022-12-10T13:32:04;28.37;;;23.60;;
25349;SDS011;13302;48.796;11.978;2022-12-10T13:38:03;23.47;;;20.50;;
25349;SDS011;13302;48.796;11.978;2022-12-10T13:41:05;23.43;;;19.87;;
25349;SDS011;13302;48.796;11.978;2022-12-10T13:44:31;23.10;;;19.10;;
25349;SDS011;13302;48.796;11.978;2022-12-10T13:47:21;23.87;;;19.67;;
25349;SDS011;13302;48.796;11.978;2022-12-10T13:56:08;23.97;;;19.20;;
25349;SDS011;13302;48.796;11.978;2022-12-10T14:08:32;19.37;;;17.27;;
25349;SDS011;13302;48.796;11.978;2022-12-10T14:11:23;20.70;;;16.40;;
25349;SDS011;13302;48.796;11.978;2022-12-10T14:14:24;19.53;;;16.73;;
25349;SDS011;13302;48.796;11.978;2022-12-10T14:17:21;16.93;;;15.13;;
25349;SDS011;13302;48.796;11.978;2022-12-10T14:20:17;16.30;;;14.50;;
25349;SDS011;13302;48.796;11.978;2022-12-10T14:26:35;17.70;;;15.57;;
25349;SDS011;13302;48.796;11.978;2022-12-10T14:29:23;17.77;;;14.97;;
25349;SDS011;13302;48.796;11.978;2022-12-10T14:32:19;17.10;;;14.03;;
25349;SDS011;13302;48.796;11.978;2022-12-10T14:35:12;16.40;;;14.43;;
25349;SDS011;13302;48.796;11.978;2022-12-10T14:38:16;20.03;;;17.00;;
25349;SDS011;13302;48.796;11.978;2022-12-10T14:41:06;21.37;;;17.33;;
25349;SDS011;13302;48.796;11.978;2022-12-10T14:43:54;25.40;;;20.57;;
25349;SDS011;13302;48.796;11.978;2022-12-10T14:46:41;23.63;;;19.43;;
25349;SDS011;13302;48.796;11.978;2022-12-10T14:49:28;23.67;;;18.43;;
25349;SDS011;13302;48.796;11.978;2022-12-10T14:52:17;26.23;;;20.87;;
25349;SDS011;13302;48.796;11.978;2022-12-10T14:55:06;27.27;;;21.00;;
25349;SDS011;13302;48.796;11.978;2022-12-10T14:58:01;20.00;;;17.30;;
25349;SDS011;13302;48.796;11.978;2022-12-10T15:00:51;19.67;;;16.10;;
25349;SDS011;13302;48.796;11.978;2022-12-10T15:03:39;19.80;;;16.90;;
25349;SDS011;13302;48.796;11.978;2022-12-10T15:06:33;19.27;;;17.20;;
25349;SDS011;13302;48.796;11.978;2022-12-10T15:09:23;19.27;;;16.97;;
25349;SDS011;13302;48.796;11.978;2022-12-10T15:15:31;18.13;;;14.20;;
25349;SDS011;13302;48.796;11.978;2022-12-10T15:18:28;17.00;;;14.80;;
25349;SDS011;13302;48.796;11.978;2022-12-10T15:21:19;15.73;;;13.60;;
25349;SDS011;13302;48.796;11.978;2022-12-10T15:24:13;15.47;;;13.40;;
25349;SDS011;13302;48.796;11.978;2022-12-10T15:27:01;15.50;;;13.90;;
25349;SDS011;13302;48.796;11.978;2022-12-10T15:29:48;16.07;;;14.30;;
25349;SDS011;13302;48.796;11.978;2022-12-10T15:32:36;16.63;;;14.70;;
25349;SDS011;13302;48.796;11.978;2022-12-10T15:35:23;16.00;;;14.23;;
25349;SDS011;13302;48.796;11.978;2022-12-10T15:38:12;17.40;;;15.53;;
25349;SDS011;13302;48.796;11.978;2022-12-10T15:41:10;18.03;;;15.03;;
25349;SDS011;13302;48.796;11.978;2022-12-10T15:47:20;23.90;;;20.17;;
25349;SDS011;13302;48.796;11.978;2022-12-10T15:50:09;26.70;;;22.13;;
25349;SDS011;13302;48.796;11.978;2022-12-10T15:52:57;37.70;;;28.70;;
25349;SDS011;13302;48.796;11.978;2022-12-10T15:55:44;51.63;;;38.87;;
25349;SDS011;13302;48.796;11.978;2022-12-10T15:58:31;49.73;;;37.87;;
25349;SDS011;13302;48.796;11.978;2022-12-10T16:01:18;31.57;;;25.97;;
25349;SDS011;13302;48.796;11.978;2022-12-10T16:04:05;27.20;;;22.77;;
25349;SDS011;13302;48.796;11.978;2022-12-10T16:06:52;23.70;;;20.23;;
25349;SDS011;13302;48.796;11.978;2022-12-10T16:09:39;21.40;;;18.47;;
25349;SDS011;13302;48.796;11.978;2022-12-10T16:12:26;21.33;;;18.43;;
25349;SDS011;13302;48.796;11.978;2022-12-10T16:15:23;19.97;;;17.33;;
25349;SDS011;13302;48.796;11.978;2022-12-10T16:18:11;18.73;;;16.80;;
25349;SDS011;13302;48.796;11.978;2022-12-10T16:20:58;19.30;;;17.13;;
25349;SDS011;13302;48.796;11.978;2022-12-10T16:23:45;20.07;;;17.90;;
25349;SDS011;13302;48.796;11.978;2022-12-10T16:26:34;18.97;;;16.67;;
25349;SDS011;13302;48.796;11.978;2022-12-10T16:29:21;19.50;;;17.30;;
25349;SDS011;13302;48.796;11.978;2022-12-10T16:32:10;18.63;;;16.53;;
25349;SDS011;13302;48.796;11.978;2022-12-10T16:34:57;17.77;;;15.93;;
25349;SDS011;13302;48.796;11.978;2022-12-10T16:37:45;18.40;;;16.43;;
25349;SDS011;13302;48.796;11.978;2022-12-10T16:40:35;20.50;;;16.50;;
25349;SDS011;13302;48.796;11.978;2022-12-10T16:43:25;19.87;;;16.37;;
25349;SDS011;13302;48.796;11.978;2022-12-10T16:46:18;16.90;;;15.20;;
25349;SDS011;13302;48.796;11.978;2022-12-10T16:49:06;18.53;;;16.63;;
25349;SDS011;13302;48.796;11.978;2022-12-10T16:51:52;18.97;;;16.97;;
25349;SDS011;13302;48.796;11.978;2022-12-10T16:54:39;16.57;;;14.80;;
25349;SDS011;13302;48.796;11.978;2022-12-10T16:57:26;19.57;;;16.80;;
25349;SDS011;13302;48.796;11.978;2022-12-10T17:00:22;18.97;;;16.97;;
25349;SDS011;13302;48.796;11.978;2022-12-10T17:03:10;19.17;;;17.10;;
25349;SDS011;13302;48.796;11.978;2022-12-10T17:06:09;19.40;;;17.37;;
25349;SDS011;13302;48.796;11.978;2022-12-10T17:08:58;17.70;;;15.90;;
25349;SDS011;13302;48.796;11.978;2022-12-10T17:11:45;18.80;;;16.70;;
25349;SDS011;13302;48.796;11.978;2022-12-10T17:14:37;18.33;;;16.43;;
25349;SDS011;13302;48.796;11.978;2022-12-10T17:17:26;17.87;;;15.97;;
25349;SDS011;13302;48.796;11.978;2022-12-10T17:20:15;18.07;;;16.27;;
25349;SDS011;13302;48.796;11.978;2022-12-10T17:23:04;19.87;;;17.77;;
25349;SDS011;13302;48.796;11.978;2022-12-10T17:25:51;19.07;;;16.97;;
25349;SDS011;13302;48.796;11.978;2022-12-10T17:28:38;18.70;;;16.70;;
25349;SDS011;13302;48.796;11.978;2022-12-10T17:31:25;18.97;;;16.93;;
25349;SDS011;13302;48.796;11.978;2022-12-10T17:34:12;19.83;;;17.63;;
25349;SDS011;13302;48.796;11.978;2022-12-10T17:37:00;19.97;;;17.90;;
25349;SDS011;13302;48.796;11.978;2022-12-10T17:39:47;19.23;;;17.23;;
25349;SDS011;13302;48.796;11.978;2022-12-10T17:42:34;20.70;;;18.60;;
25349;SDS011;13302;48.796;11.978;2022-12-10T17:45:21;21.23;;;18.93;;
25349;SDS011;13302;48.796;11.978;2022-12-10T17:48:12;25.20;;;22.60;;
25349;SDS011;13302;48.796;11.978;2022-12-10T17:51:00;22.77;;;20.50;;
25349;SDS011;13302;48.796;11.978;2022-12-10T17:53:47;22.23;;;19.93;;
25349;SDS011;13302;48.796;11.978;2022-12-10T17:56:34;21.67;;;19.47;;
25349;SDS011;13302;48.796;11.978;2022-12-10T17:59:21;24.43;;;21.80;;
25349;SDS011;13302;48.796;11.978;2022-12-10T18:02:09;22.60;;;20.30;;
25349;SDS011;13302;48.796;11.978;2022-12-10T18:04:57;22.27;;;19.97;;
25349;SDS011;13302;48.796;11.978;2022-12-10T18:07:44;23.03;;;20.27;;
25349;SDS011;13302;48.796;11.978;2022-12-10T18:10:31;22.93;;;20.47;;
25349;SDS011;13302;48.796;11.978;2022-12-10T18:13:19;20.40;;;18.20;;
25349;SDS011;13302;48.796;11.978;2022-12-10T18:16:41;22.50;;;20.10;;
25349;SDS011;13302;48.796;11.978;2022-12-10T18:19:21;21.30;;;19.10;;
25349;SDS011;13302;48.796;11.978;2022-12-10T18:22:08;21.83;;;19.53;;
25349;SDS011;13302;48.796;11.978;2022-12-10T18:24:56;20.60;;;18.43;;
25349;SDS011;13302;48.796;11.978;2022-12-10T18:27:43;19.70;;;17.80;;